createdAt,value
2022-08-17T00:00:04.909Z,18.60
2022-08-17T00:02:32.546Z,18.70
2022-08-17T00:05:05.697Z,18.70
2022-08-17T00:07:32.530Z,18.70
2022-08-17T00:09:59.290Z,18.80
2022-08-17T00:12:41.081Z,18.70
2022-08-17T00:15:12.783Z,18.70
2022-08-17T00:17:42.059Z,18.70
2022-08-17T00:20:10.799Z,18.50
2022-08-17T00:22:37.744Z,18.60
2022-08-17T00:25:09.030Z,18.60
2022-08-17T00:27:35.989Z,18.60
2022-08-17T00:30:05.134Z,18.50
2022-08-17T00:33:11.677Z,18.40
2022-08-17T00:35:27.919Z,18.40
2022-08-17T00:37:55.498Z,18.40
2022-08-17T00:40:22.551Z,18.40
2022-08-17T00:42:53.470Z,18.40
2022-08-17T00:45:22.587Z,18.40
2022-08-17T00:47:49.603Z,18.40
2022-08-17T00:50:19.117Z,18.30
2022-08-17T00:52:54.781Z,18.20
2022-08-17T00:55:23.915Z,18.10
2022-08-17T00:57:55.874Z,18.10
2022-08-17T01:00:29.963Z,18.10
2022-08-17T01:03:02.134Z,18.10
2022-08-17T01:05:32.225Z,18.00
2022-08-17T01:08:00.680Z,18.00
2022-08-17T01:10:58.383Z,17.90
2022-08-17T01:13:25.612Z,17.90
2022-08-17T01:16:09.412Z,17.90
2022-08-17T01:18:36.596Z,17.90
2022-08-17T01:21:36.640Z,17.80
2022-08-17T01:24:04.265Z,18.00
2022-08-17T01:26:33.156Z,17.70
2022-08-17T01:29:01.525Z,17.70
2022-08-17T01:31:35.120Z,17.60
2022-08-17T01:34:08.146Z,17.60
2022-08-17T01:36:37.367Z,17.50
2022-08-17T01:39:08.754Z,17.50
2022-08-17T01:41:37.849Z,17.50
2022-08-17T01:44:07.813Z,17.50
2022-08-17T01:46:37.130Z,17.40
2022-08-17T01:49:09.540Z,17.40
2022-08-17T01:51:37.272Z,17.30
2022-08-17T01:54:11.954Z,17.30
2022-08-17T01:56:42.118Z,17.20
2022-08-17T01:59:09.011Z,17.20
2022-08-17T02:01:37.092Z,17.20
2022-08-17T02:04:05.899Z,17.20
2022-08-17T02:06:52.878Z,17.10
2022-08-17T02:09:23.356Z,17.10
2022-08-17T02:11:56.268Z,17.00
2022-08-17T02:14:24.478Z,16.90
2022-08-17T02:16:52.125Z,16.90
2022-08-17T02:19:19.367Z,16.90
2022-08-17T02:21:48.208Z,16.90
2022-08-17T02:24:58.194Z,16.80
2022-08-17T02:27:20.568Z,16.70
2022-08-17T02:29:47.422Z,16.70
2022-08-17T02:32:27.292Z,16.60
2022-08-17T02:34:54.729Z,16.60
2022-08-17T02:37:21.599Z,16.60
2022-08-17T02:39:48.562Z,16.60
2022-08-17T02:42:15.466Z,16.50
2022-08-17T02:44:42.412Z,16.50
2022-08-17T02:47:12.148Z,16.50
2022-08-17T02:49:39.058Z,16.40
2022-08-17T02:52:07.673Z,16.40
2022-08-17T02:54:39.784Z,16.40
2022-08-17T02:57:07.775Z,16.40
2022-08-17T02:59:34.630Z,16.30
2022-08-17T03:02:04.199Z,16.30
2022-08-17T03:04:31.263Z,16.30
2022-08-17T03:07:02.504Z,16.30
2022-08-17T03:09:29.345Z,16.20
2022-08-17T03:12:03.723Z,16.20
2022-08-17T03:14:32.249Z,16.20
2022-08-17T03:16:59.378Z,16.20
2022-08-17T03:19:26.195Z,16.10
2022-08-17T03:21:55.122Z,16.10
2022-08-17T03:24:26.809Z,16.10
2022-08-17T03:26:55.841Z,16.10
2022-08-17T03:29:22.663Z,16.20
2022-08-17T03:31:50.197Z,16.20
2022-08-17T03:34:17.967Z,16.10
2022-08-17T03:36:44.807Z,16.00
2022-08-17T03:39:11.675Z,16.10
2022-08-17T03:41:39.310Z,16.10
2022-08-17T03:44:06.214Z,16.00
2022-08-17T03:46:51.415Z,16.10
2022-08-17T03:49:37.211Z,16.00
2022-08-17T03:52:22.808Z,16.00
2022-08-17T03:55:08.353Z,15.90
2022-08-17T03:57:35.114Z,15.90
2022-08-17T04:00:01.972Z,16.00
2022-08-17T04:02:31.827Z,15.90
2022-08-17T04:04:59.318Z,15.90
2022-08-17T04:07:28.928Z,15.90
2022-08-17T04:09:57.964Z,15.90
2022-08-17T04:12:30.789Z,15.90
2022-08-17T04:14:58.211Z,15.80
2022-08-17T04:17:29.334Z,15.80
2022-08-17T04:19:57.137Z,15.70
2022-08-17T04:22:30.557Z,15.80
2022-08-17T04:24:58.774Z,15.80
2022-08-17T04:27:25.705Z,15.90
2022-08-17T04:29:55.536Z,15.90
2022-08-17T04:32:58.576Z,15.90
2022-08-17T04:35:10.543Z,16.10
2022-08-17T04:37:38.134Z,16.20
2022-08-17T04:40:27.485Z,16.30
2022-08-17T04:43:19.854Z,16.30
2022-08-17T04:45:57.315Z,16.30
2022-08-17T04:48:27.853Z,16.40
2022-08-17T04:51:03.841Z,16.50
2022-08-17T04:53:33.853Z,16.60
2022-08-17T04:56:00.709Z,16.60
2022-08-17T04:58:27.592Z,16.80
2022-08-17T05:00:54.441Z,17.00
2022-08-17T05:03:21.271Z,17.10
2022-08-17T05:05:51.191Z,17.10
2022-08-17T05:08:20.174Z,17.10
2022-08-17T05:10:48.052Z,17.20
2022-08-17T05:13:18.850Z,17.30
2022-08-17T05:15:48.093Z,17.40
2022-08-17T05:18:16.661Z,17.60
2022-08-17T05:20:44.940Z,17.70
2022-08-17T05:23:14.897Z,17.70
2022-08-17T05:25:49.011Z,17.70
2022-08-17T05:28:20.802Z,17.90
2022-08-17T05:30:51.508Z,17.70
2022-08-17T05:33:24.384Z,17.60
2022-08-17T05:35:54.018Z,17.60
2022-08-17T05:38:24.640Z,17.80
2022-08-17T05:40:52.487Z,18.00
2022-08-17T05:43:26.000Z,18.10
2022-08-17T05:46:26.367Z,18.20
2022-08-17T05:48:57.276Z,18.40
2022-08-17T05:51:42.587Z,18.50
2022-08-17T05:54:21.854Z,18.70
2022-08-17T05:57:24.090Z,18.90
2022-08-17T06:00:06.811Z,20.40
2022-08-17T06:02:47.166Z,22.50
2022-08-17T06:05:42.537Z,24.10
2022-08-17T06:08:30.919Z,25.70
2022-08-17T06:11:26.868Z,26.90
2022-08-17T06:14:23.524Z,27.80
2022-08-17T06:16:58.589Z,28.00
2022-08-17T06:19:37.887Z,28.40
2022-08-17T06:22:06.492Z,28.60
2022-08-17T06:24:42.293Z,28.60
2022-08-17T06:27:30.038Z,28.30
2022-08-17T06:30:14.099Z,27.90
2022-08-17T06:32:44.435Z,28.20
2022-08-17T06:35:15.627Z,28.30
2022-08-17T06:37:48.815Z,28.50
2022-08-17T06:40:34.378Z,29.20
2022-08-17T06:43:36.244Z,29.30
2022-08-17T06:46:13.412Z,30.20
2022-08-17T06:48:49.257Z,29.90
2022-08-17T06:51:30.063Z,30.50
2022-08-17T06:54:25.609Z,30.70
2022-08-17T06:57:02.498Z,30.70
2022-08-17T06:59:55.660Z,31.30
2022-08-17T07:02:52.609Z,30.70
2022-08-17T07:05:32.610Z,32.40
2022-08-17T07:12:31.496Z,30.60
2022-08-17T07:15:07.512Z,30.50
2022-08-17T07:17:47.669Z,31.40
2022-08-17T07:20:18.219Z,30.60
2022-08-17T07:22:59.415Z,30.80
2022-08-17T07:25:30.730Z,31.70
2022-08-17T07:28:02.458Z,31.40
2022-08-17T07:30:48.981Z,32.20
2022-08-17T07:33:25.082Z,32.00
2022-08-17T07:35:52.156Z,32.00
2022-08-17T07:38:24.920Z,32.40
2022-08-17T07:41:02.519Z,33.60
2022-08-17T07:43:31.215Z,34.80
2022-08-17T07:46:25.584Z,34.90
2022-08-17T07:48:55.724Z,34.60
2022-08-17T07:51:29.199Z,33.90
2022-08-17T07:54:13.699Z,34.60
2022-08-17T07:56:48.881Z,34.20
2022-08-17T07:59:43.575Z,34.10
2022-08-17T08:02:48.780Z,33.80
2022-08-17T08:05:30.667Z,33.60
2022-08-17T08:08:42.700Z,34.10
2022-08-17T08:11:12.810Z,33.60
2022-08-17T08:13:43.817Z,34.00
2022-08-17T08:16:24.966Z,35.00
2022-08-17T08:18:57.815Z,34.40
2022-08-17T08:21:41.787Z,34.00
2022-08-17T08:24:17.683Z,33.40
2022-08-17T08:27:07.970Z,34.30
2022-08-17T08:29:49.052Z,34.50
2022-08-17T08:32:20.188Z,35.30
2022-08-17T08:35:01.966Z,34.50
2022-08-17T08:37:43.792Z,34.30
2022-08-17T08:40:36.473Z,35.80
2022-08-17T08:43:10.284Z,35.00
2022-08-17T08:45:51.748Z,34.50
2022-08-17T08:48:53.141Z,34.60
2022-08-17T08:51:41.632Z,35.40
2022-08-17T08:54:59.958Z,36.40
2022-08-17T08:57:34.595Z,36.50
2022-08-17T09:00:23.374Z,36.50
2022-08-17T09:03:32.397Z,35.60
2022-08-17T09:06:32.198Z,34.90
2022-08-17T09:09:13.457Z,35.90
2022-08-17T09:12:08.542Z,36.60
2022-08-17T09:14:45.272Z,37.00
2022-08-17T09:17:16.541Z,37.50
2022-08-17T09:20:04.187Z,37.40
2022-08-17T09:22:37.133Z,36.30
2022-08-17T09:25:26.998Z,35.90
2022-08-17T09:28:03.968Z,34.90
2022-08-17T09:30:55.302Z,36.00
2022-08-17T09:33:28.641Z,36.50
2022-08-17T09:36:07.557Z,36.80
2022-08-17T09:39:11.572Z,37.60
2022-08-17T09:41:49.460Z,36.10
2022-08-17T09:44:28.695Z,35.90
2022-08-17T09:47:20.185Z,35.90
2022-08-17T09:49:51.425Z,36.00
2022-08-17T09:52:24.312Z,36.00
2022-08-17T09:54:54.304Z,34.70
2022-08-17T09:57:30.253Z,35.40
2022-08-17T10:00:23.743Z,35.30
2022-08-17T10:03:16.139Z,35.90
2022-08-17T10:05:49.616Z,36.10
2022-08-17T10:08:52.601Z,35.70
2022-08-17T10:12:17.118Z,34.80
2022-08-17T10:14:57.366Z,36.40
2022-08-17T10:17:42.227Z,36.80
2022-08-17T10:20:30.158Z,36.20
2022-08-17T10:23:18.855Z,35.40
2022-08-17T10:26:12.874Z,36.00
2022-08-17T10:29:06.869Z,35.20
2022-08-17T10:31:51.890Z,36.00
2022-08-17T10:34:41.438Z,36.30
2022-08-17T10:37:28.305Z,35.90
2022-08-17T10:40:19.661Z,35.40
2022-08-17T10:42:51.552Z,35.40
2022-08-17T10:45:36.830Z,35.50
2022-08-17T10:48:07.330Z,35.20
2022-08-17T10:51:01.085Z,35.90
2022-08-17T10:53:40.665Z,36.00
2022-08-17T10:56:19.523Z,35.60
2022-08-17T10:58:49.425Z,36.20
2022-08-17T11:01:17.880Z,37.80
2022-08-17T11:03:56.721Z,37.20
2022-08-17T11:06:38.911Z,37.50
2022-08-17T11:09:11.546Z,36.10
2022-08-17T11:11:53.517Z,36.10
2022-08-17T11:14:47.298Z,36.10
2022-08-17T11:17:19.871Z,34.70
2022-08-17T11:20:06.974Z,33.50
2022-08-17T11:23:14.699Z,34.20
2022-08-17T11:25:57.713Z,34.50
2022-08-17T11:28:46.027Z,33.60
2022-08-17T11:31:42.549Z,35.00
2022-08-17T11:34:26.436Z,34.60
2022-08-17T11:37:02.482Z,34.30
2022-08-17T11:39:43.428Z,34.30
2022-08-17T11:42:28.915Z,34.10
2022-08-17T11:45:02.852Z,35.00
2022-08-17T11:48:25.839Z,35.50
2022-08-17T11:51:13.029Z,35.40
2022-08-17T11:53:39.793Z,36.50
2022-08-17T11:56:29.988Z,36.40
2022-08-17T11:58:56.922Z,35.90
2022-08-17T12:01:24.278Z,34.80
2022-08-17T12:03:58.903Z,34.80
2022-08-17T12:06:40.038Z,36.00
2022-08-17T12:09:16.610Z,37.00
2022-08-17T12:12:13.765Z,37.10
2022-08-17T12:17:41.471Z,35.10
2022-08-17T12:20:43.919Z,35.40
2022-08-17T12:23:45.779Z,36.10
2022-08-17T12:26:19.833Z,37.20
2022-08-17T12:28:57.242Z,36.90
2022-08-17T12:31:37.207Z,36.80
2022-08-17T12:34:05.022Z,36.70
2022-08-17T12:36:33.686Z,36.90
2022-08-17T12:39:14.611Z,36.50
2022-08-17T12:41:51.030Z,35.70
2022-08-17T12:44:22.247Z,35.50
2022-08-17T12:46:51.964Z,36.00
2022-08-17T12:49:35.593Z,35.90
2022-08-17T12:52:19.672Z,36.00
2022-08-17T12:55:00.973Z,35.30
2022-08-17T12:57:38.798Z,36.30
2022-08-17T13:00:17.638Z,36.10
2022-08-17T13:02:50.290Z,35.70
2022-08-17T13:05:42.145Z,35.50
2022-08-17T13:08:20.971Z,35.10
2022-08-17T13:10:59.877Z,36.20
2022-08-17T13:13:38.379Z,35.70
2022-08-17T13:16:12.862Z,35.70
2022-08-17T13:18:46.594Z,35.60
2022-08-17T13:21:19.555Z,35.00
2022-08-17T13:23:55.966Z,34.40
2022-08-17T13:26:47.314Z,34.60
2022-08-17T13:29:23.841Z,34.60
2022-08-17T13:32:16.096Z,34.50
2022-08-17T13:35:15.572Z,34.60
2022-08-17T13:37:36.888Z,34.90
2022-08-17T13:40:09.993Z,34.80
2022-08-17T13:42:51.629Z,34.50
2022-08-17T13:45:35.652Z,34.10
2022-08-17T13:48:17.204Z,34.50
2022-08-17T13:50:55.812Z,34.40
2022-08-17T13:53:24.724Z,34.60
2022-08-17T13:56:02.213Z,34.60
2022-08-17T13:58:33.906Z,34.50
2022-08-17T14:01:28.980Z,34.30
2022-08-17T14:03:56.743Z,34.40
2022-08-17T14:06:51.483Z,33.60
2022-08-17T14:09:14.770Z,33.60
2022-08-17T14:11:43.151Z,33.30
2022-08-17T14:14:11.265Z,33.50
2022-08-17T14:16:43.613Z,33.60
2022-08-17T14:19:14.232Z,33.70
2022-08-17T14:21:43.827Z,33.60
2022-08-17T14:24:27.369Z,33.50
2022-08-17T14:26:54.763Z,33.00
2022-08-17T14:29:23.061Z,32.50
2022-08-17T14:31:54.516Z,32.60
2022-08-17T14:34:23.255Z,32.60
2022-08-17T14:36:50.250Z,32.50
2022-08-17T14:39:18.055Z,32.70
2022-08-17T14:41:44.983Z,32.60
2022-08-17T14:44:15.109Z,32.50
2022-08-17T14:46:44.054Z,32.40
2022-08-17T14:49:13.049Z,32.40
2022-08-17T14:51:44.424Z,32.50
2022-08-17T14:54:32.791Z,32.50
2022-08-17T14:57:15.585Z,32.70
2022-08-17T14:59:47.173Z,32.80
2022-08-17T15:02:14.117Z,33.00
2022-08-17T15:04:45.501Z,32.70
2022-08-17T15:07:12.614Z,32.70
2022-08-17T15:09:39.507Z,32.50
2022-08-17T15:12:07.424Z,32.70
2022-08-17T15:14:35.785Z,32.80
2022-08-17T15:17:03.463Z,33.00
2022-08-17T15:19:33.248Z,32.90
2022-08-17T15:22:00.170Z,32.80
2022-08-17T15:24:27.093Z,33.00
2022-08-17T15:26:53.895Z,33.00
2022-08-17T15:29:20.685Z,32.90
2022-08-17T15:31:47.877Z,32.80
2022-08-17T15:34:15.532Z,33.00
2022-08-17T15:36:49.175Z,32.90
2022-08-17T15:39:19.471Z,32.60
2022-08-17T15:41:47.367Z,32.50
2022-08-17T15:44:32.537Z,32.50
2022-08-17T15:47:02.129Z,32.40
2022-08-17T15:49:28.972Z,32.50
2022-08-17T15:51:55.828Z,32.30
2022-08-17T15:54:23.547Z,32.20
2022-08-17T15:56:50.837Z,31.90
2022-08-17T15:59:18.366Z,31.70
2022-08-17T16:03:14.773Z,31.70
2022-08-17T16:04:32.421Z,31.70
2022-08-17T16:07:00.234Z,31.60
2022-08-17T16:09:27.696Z,31.50
2022-08-17T16:11:56.086Z,31.50
2022-08-17T16:14:32.381Z,31.30
2022-08-17T16:17:02.221Z,31.30
2022-08-17T16:19:29.069Z,31.40
2022-08-17T16:21:55.955Z,31.30
2022-08-17T16:24:22.745Z,31.50
2022-08-17T16:26:49.662Z,31.50
2022-08-17T16:29:16.700Z,31.50
2022-08-17T16:31:43.894Z,31.50
2022-08-17T16:34:16.913Z,31.40
2022-08-17T16:36:55.433Z,31.50
2022-08-17T16:39:28.117Z,31.40
2022-08-17T16:41:56.356Z,31.30
2022-08-17T16:44:23.994Z,31.30
2022-08-17T16:46:50.864Z,31.20
2022-08-17T16:49:35.937Z,31.20
2022-08-17T16:52:06.499Z,31.10
2022-08-17T16:54:35.398Z,31.00
2022-08-17T16:57:05.041Z,30.90
2022-08-17T16:59:40.993Z,30.90
2022-08-17T17:02:13.648Z,30.90
2022-08-17T17:04:46.500Z,30.70
2022-08-17T17:07:38.255Z,30.60
2022-08-17T17:10:10.099Z,30.60
2022-08-17T17:13:01.334Z,30.40
2022-08-17T17:15:32.906Z,30.30
2022-08-17T17:18:06.991Z,30.20
2022-08-17T17:20:47.477Z,30.20
2022-08-17T17:23:36.515Z,30.20
2022-08-17T17:26:27.387Z,30.10
2022-08-17T17:29:20.383Z,30.00
2022-08-17T17:32:20.880Z,29.80
2022-08-17T17:34:55.101Z,29.80
2022-08-17T17:37:27.760Z,29.60
2022-08-17T17:39:59.774Z,29.60
2022-08-17T17:42:31.415Z,29.40
2022-08-17T17:45:12.092Z,29.30
2022-08-17T17:47:39.037Z,29.10
2022-08-17T17:50:07.350Z,28.90
2022-08-17T17:52:46.292Z,28.80
2022-08-17T17:55:19.223Z,28.80
2022-08-17T17:57:46.984Z,28.70
2022-08-17T18:00:53.975Z,28.50
2022-08-17T18:03:44.685Z,28.50
2022-08-17T18:06:36.328Z,28.40
2022-08-17T18:09:26.152Z,28.30
2022-08-17T18:12:13.172Z,28.30
2022-08-17T18:14:58.340Z,28.20
2022-08-17T18:17:25.187Z,28.10
2022-08-17T18:19:55.358Z,28.00
2022-08-17T18:22:23.337Z,27.90
2022-08-17T18:24:58.282Z,27.80
2022-08-17T18:27:49.153Z,27.70
2022-08-17T18:30:18.817Z,27.60
2022-08-17T18:32:46.782Z,27.50
2022-08-17T18:35:16.530Z,27.40
2022-08-17T18:37:49.699Z,27.30
2022-08-17T18:40:16.767Z,27.20
2022-08-17T18:43:22.887Z,27.10
2022-08-17T18:45:53.361Z,27.10
2022-08-17T18:48:23.192Z,26.90
2022-08-17T18:50:51.462Z,26.90
2022-08-17T18:53:35.800Z,26.80
2022-08-17T18:56:26.471Z,26.60
2022-08-17T18:59:11.655Z,26.50
2022-08-17T19:01:52.277Z,26.40
2022-08-17T19:04:34.600Z,26.30
2022-08-17T19:07:16.987Z,26.30
2022-08-17T19:10:05.857Z,26.20
2022-08-17T19:12:38.230Z,26.20
2022-08-17T19:15:08.050Z,26.10
2022-08-17T19:17:53.335Z,26.10
2022-08-17T19:20:27.603Z,26.00
2022-08-17T19:23:53.329Z,25.90
2022-08-17T19:26:54.283Z,25.80
2022-08-17T19:29:41.654Z,25.70
2022-08-17T19:32:10.856Z,25.60
2022-08-17T19:34:42.981Z,25.50
2022-08-17T19:37:44.080Z,25.50
2022-08-17T19:40:59.597Z,25.40
2022-08-17T19:43:26.708Z,25.30
2022-08-17T19:46:05.981Z,25.20
2022-08-17T19:48:59.111Z,25.10
2022-08-17T19:51:34.820Z,25.10
2022-08-17T19:54:14.153Z,25.00
2022-08-17T19:57:08.819Z,25.00
2022-08-17T19:59:49.515Z,24.90
2022-08-17T20:02:24.904Z,24.80
2022-08-17T20:04:56.004Z,24.80
2022-08-17T20:07:29.035Z,24.70
2022-08-17T20:10:07.956Z,24.60
2022-08-17T20:12:38.032Z,24.60
2022-08-17T20:15:04.915Z,24.60
2022-08-17T20:17:37.224Z,24.60
2022-08-17T20:20:20.678Z,24.50
2022-08-17T20:22:53.351Z,24.50
2022-08-17T20:25:49.272Z,24.40
2022-08-17T20:28:24.197Z,24.30
2022-08-17T20:30:51.960Z,24.30
2022-08-17T20:33:37.085Z,24.20
2022-08-17T20:36:20.527Z,24.30
2022-08-17T20:38:58.168Z,24.30
2022-08-17T20:41:30.329Z,24.20
2022-08-17T20:43:57.189Z,24.20
2022-08-17T20:46:51.368Z,24.10
2022-08-17T20:49:48.327Z,24.10
2022-08-17T20:52:35.331Z,24.10
2022-08-17T20:55:04.395Z,24.00
2022-08-17T20:57:34.330Z,24.00
2022-08-17T21:00:17.255Z,24.10
2022-08-17T21:02:50.549Z,24.10
2022-08-17T21:05:34.548Z,24.10
2022-08-17T21:08:16.563Z,24.00
2022-08-17T21:10:46.407Z,24.00
2022-08-17T21:13:16.116Z,24.00
2022-08-17T21:15:58.920Z,23.90
2022-08-17T21:18:38.850Z,24.00
2022-08-17T21:21:17.569Z,23.90
2022-08-17T21:24:09.192Z,23.90
2022-08-17T21:26:56.680Z,23.90
2022-08-17T21:29:30.906Z,23.90
2022-08-17T21:31:59.531Z,23.90
2022-08-17T21:34:35.148Z,23.90
2022-08-17T21:37:20.483Z,23.90
2022-08-17T21:40:00.927Z,23.80
2022-08-17T21:42:35.941Z,23.80
2022-08-17T21:45:30.925Z,23.80
2022-08-17T21:48:07.474Z,23.70
2022-08-17T21:50:35.616Z,23.70
2022-08-17T21:53:04.291Z,23.70
2022-08-17T21:55:33.987Z,23.60
2022-08-17T21:58:13.684Z,23.60
2022-08-17T22:00:44.513Z,23.60
2022-08-17T22:03:23.852Z,23.50
2022-08-17T22:05:51.465Z,23.50
2022-08-17T22:08:22.050Z,23.50
2022-08-17T22:10:51.203Z,23.50
2022-08-17T22:13:18.098Z,23.30
2022-08-17T22:16:28.031Z,23.30
2022-08-17T22:18:58.025Z,23.30
2022-08-17T22:21:25.494Z,23.20
2022-08-17T22:24:04.593Z,23.20
2022-08-17T22:27:01.848Z,23.20
2022-08-17T22:29:58.224Z,23.20
2022-08-17T22:32:49.238Z,23.40
2022-08-17T22:35:38.306Z,23.40
2022-08-17T22:38:20.104Z,23.40
2022-08-17T22:40:52.534Z,23.40
2022-08-17T22:43:26.293Z,23.30
2022-08-17T22:45:57.458Z,23.40
2022-08-17T22:48:28.368Z,23.40
2022-08-17T22:51:18.612Z,23.40
2022-08-17T22:54:06.308Z,23.50
2022-08-17T22:56:52.025Z,23.60
2022-08-17T22:59:36.167Z,23.70
2022-08-17T23:02:11.716Z,23.40
2022-08-17T23:04:42.561Z,23.20
2022-08-17T23:07:09.584Z,23.20
2022-08-17T23:09:37.117Z,23.40
2022-08-17T23:12:08.633Z,23.40
2022-08-17T23:14:40.913Z,23.60
2022-08-17T23:17:08.624Z,23.60
2022-08-17T23:19:35.654Z,23.60
2022-08-17T23:22:05.059Z,23.60
2022-08-17T23:24:40.915Z,23.60
2022-08-17T23:27:07.835Z,23.60
2022-08-17T23:29:35.311Z,23.60
2022-08-17T23:32:04.758Z,23.60
2022-08-17T23:34:31.843Z,23.50
2022-08-17T23:36:59.548Z,23.50
2022-08-17T23:39:27.556Z,23.50
2022-08-17T23:41:58.243Z,23.20
2022-08-17T23:44:26.217Z,23.00
2022-08-17T23:46:53.546Z,22.90
2022-08-17T23:49:20.792Z,22.80
2022-08-17T23:51:48.786Z,22.70
2022-08-17T23:54:37.429Z,22.60
2022-08-17T23:57:09.133Z,22.40
2022-08-17T23:59:37.189Z,22.40
